sensor_id;sensor_type;location;lat;lon;timestamp;P1;durP1;ratioP1;P2;durP2;ratioP2
54247;SDS011;40161;39.768;2.722;2023-03-23T00:01:17;2.65;;;1.20;;
54247;SDS011;40161;39.768;2.722;2023-03-23T00:03:45;2.45;;;1.13;;
54247;SDS011;40161;39.768;2.722;2023-03-23T00:06:12;3.72;;;1.20;;
54247;SDS011;40161;39.768;2.722;2023-03-23T00:08:43;2.70;;;1.20;;
54247;SDS011;40161;39.768;2.722;2023-03-23T00:11:30;3.10;;;1.30;;
54247;SDS011;40161;39.768;2.722;2023-03-23T00:13:57;2.03;;;1.05;;
54247;SDS011;40161;39.768;2.722;2023-03-23T00:16:26;2.65;;;1.35;;
54247;SDS011;40161;39.768;2.722;2023-03-23T00:18:58;2.60;;;1.23;;
54247;SDS011;40161;39.768;2.722;2023-03-23T00:21:26;2.97;;;1.10;;
54247;SDS011;40161;39.768;2.722;2023-03-23T00:24:00;3.75;;;1.08;;
54247;SDS011;40161;39.768;2.722;2023-03-23T00:26:27;2.63;;;1.33;;
54247;SDS011;40161;39.768;2.722;2023-03-23T00:28:54;2.67;;;1.20;;
54247;SDS011;40161;39.768;2.722;2023-03-23T00:31:21;2.40;;;1.20;;
54247;SDS011;40161;39.768;2.722;2023-03-23T00:33:47;2.60;;;1.17;;
54247;SDS011;40161;39.768;2.722;2023-03-23T00:36:12;1.65;;;1.05;;
54247;SDS011;40161;39.768;2.722;2023-03-23T00:38:39;2.10;;;1.00;;
54247;SDS011;40161;39.768;2.722;2023-03-23T00:41:06;2.70;;;1.20;;
54247;SDS011;40161;39.768;2.722;2023-03-23T00:43:33;2.97;;;1.13;;
54247;SDS011;40161;39.768;2.722;2023-03-23T00:46:01;2.22;;;1.00;;
54247;SDS011;40161;39.768;2.722;2023-03-23T00:48:28;2.33;;;1.20;;
54247;SDS011;40161;39.768;2.722;2023-03-23T00:50:54;2.20;;;1.17;;
54247;SDS011;40161;39.768;2.722;2023-03-23T00:53:21;3.03;;;1.30;;
54247;SDS011;40161;39.768;2.722;2023-03-23T00:55:47;2.60;;;1.15;;
54247;SDS011;40161;39.768;2.722;2023-03-23T00:58:14;3.47;;;1.50;;
54247;SDS011;40161;39.768;2.722;2023-03-23T01:00:41;3.65;;;1.35;;
54247;SDS011;40161;39.768;2.722;2023-03-23T01:03:07;2.83;;;1.20;;
54247;SDS011;40161;39.768;2.722;2023-03-23T01:05:38;5.05;;;1.30;;
54247;SDS011;40161;39.768;2.722;2023-03-23T01:08:05;2.80;;;1.15;;
54247;SDS011;40161;39.768;2.722;2023-03-23T01:10:31;3.47;;;1.10;;
54247;SDS011;40161;39.768;2.722;2023-03-23T01:13:00;2.20;;;1.00;;
54247;SDS011;40161;39.768;2.722;2023-03-23T01:15:27;3.03;;;1.00;;
54247;SDS011;40161;39.768;2.722;2023-03-23T01:17:53;1.88;;;0.98;;
54247;SDS011;40161;39.768;2.722;2023-03-23T01:20:19;1.42;;;0.80;;
54247;SDS011;40161;39.768;2.722;2023-03-23T01:22:45;1.50;;;0.95;;
54247;SDS011;40161;39.768;2.722;2023-03-23T01:25:11;2.05;;;1.00;;
54247;SDS011;40161;39.768;2.722;2023-03-23T01:27:38;1.83;;;1.00;;
54247;SDS011;40161;39.768;2.722;2023-03-23T01:30:04;0.75;;;0.73;;
54247;SDS011;40161;39.768;2.722;2023-03-23T01:32:32;1.73;;;1.02;;
54247;SDS011;40161;39.768;2.722;2023-03-23T01:34:58;3.35;;;1.00;;
54247;SDS011;40161;39.768;2.722;2023-03-23T01:37:24;3.70;;;1.17;;
54247;SDS011;40161;39.768;2.722;2023-03-23T01:39:54;1.75;;;0.90;;
54247;SDS011;40161;39.768;2.722;2023-03-23T01:42:24;2.95;;;1.20;;
54247;SDS011;40161;39.768;2.722;2023-03-23T01:47:21;3.45;;;1.00;;
54247;SDS011;40161;39.768;2.722;2023-03-23T01:49:51;3.25;;;1.15;;
54247;SDS011;40161;39.768;2.722;2023-03-23T01:52:19;1.50;;;1.00;;
54247;SDS011;40161;39.768;2.722;2023-03-23T01:54:49;3.22;;;1.10;;
54247;SDS011;40161;39.768;2.722;2023-03-23T01:57:19;1.52;;;1.00;;
54247;SDS011;40161;39.768;2.722;2023-03-23T01:59:47;2.03;;;1.00;;
54247;SDS011;40161;39.768;2.722;2023-03-23T02:02:17;3.17;;;1.20;;
54247;SDS011;40161;39.768;2.722;2023-03-23T02:04:46;1.67;;;0.90;;
54247;SDS011;40161;39.768;2.722;2023-03-23T02:07:12;2.45;;;0.90;;
54247;SDS011;40161;39.768;2.722;2023-03-23T02:09:40;2.03;;;0.90;;
54247;SDS011;40161;39.768;2.722;2023-03-23T02:12:06;2.50;;;0.90;;
54247;SDS011;40161;39.768;2.722;2023-03-23T02:14:31;2.03;;;1.10;;
54247;SDS011;40161;39.768;2.722;2023-03-23T02:33:21;2.70;;;1.10;;
54247;SDS011;40161;39.768;2.722;2023-03-23T02:36:00;2.13;;;0.82;;
54247;SDS011;40161;39.768;2.722;2023-03-23T02:38:55;2.30;;;0.98;;
54247;SDS011;40161;39.768;2.722;2023-03-23T02:41:33;3.80;;;0.98;;
54247;SDS011;40161;39.768;2.722;2023-03-23T02:44:05;2.50;;;0.77;;
54247;SDS011;40161;39.768;2.722;2023-03-23T02:46:32;1.73;;;0.90;;
54247;SDS011;40161;39.768;2.722;2023-03-23T02:49:00;2.38;;;0.80;;
54247;SDS011;40161;39.768;2.722;2023-03-23T02:51:28;3.47;;;0.88;;
54247;SDS011;40161;39.768;2.722;2023-03-23T02:53:55;1.20;;;0.70;;
54247;SDS011;40161;39.768;2.722;2023-03-23T02:56:23;2.05;;;1.00;;
54247;SDS011;40161;39.768;2.722;2023-03-23T02:58:53;3.08;;;0.90;;
54247;SDS011;40161;39.768;2.722;2023-03-23T03:03:54;2.00;;;1.00;;
54247;SDS011;40161;39.768;2.722;2023-03-23T03:09:07;1.98;;;0.90;;
54247;SDS011;40161;39.768;2.722;2023-03-23T03:11:37;1.77;;;0.93;;
54247;SDS011;40161;39.768;2.722;2023-03-23T03:14:09;1.53;;;0.87;;
54247;SDS011;40161;39.768;2.722;2023-03-23T03:17:02;0.65;;;0.60;;
54247;SDS011;40161;39.768;2.722;2023-03-23T03:19:34;1.45;;;0.80;;
54247;SDS011;40161;39.768;2.722;2023-03-23T03:22:03;2.35;;;0.95;;
54247;SDS011;40161;39.768;2.722;2023-03-23T03:24:30;3.10;;;1.00;;
54247;SDS011;40161;39.768;2.722;2023-03-23T03:26:57;1.92;;;0.90;;
54247;SDS011;40161;39.768;2.722;2023-03-23T03:29:32;1.05;;;0.80;;
54247;SDS011;40161;39.768;2.722;2023-03-23T03:32:01;1.95;;;0.82;;
54247;SDS011;40161;39.768;2.722;2023-03-23T03:34:30;1.67;;;0.80;;
54247;SDS011;40161;39.768;2.722;2023-03-23T03:36:57;1.92;;;0.88;;
54247;SDS011;40161;39.768;2.722;2023-03-23T03:39:26;2.20;;;0.82;;
54247;SDS011;40161;39.768;2.722;2023-03-23T03:41:52;1.27;;;0.80;;
54247;SDS011;40161;39.768;2.722;2023-03-23T03:44:19;1.58;;;0.80;;
54247;SDS011;40161;39.768;2.722;2023-03-23T03:46:44;1.83;;;1.10;;
54247;SDS011;40161;39.768;2.722;2023-03-23T03:49:10;1.40;;;0.70;;
54247;SDS011;40161;39.768;2.722;2023-03-23T03:51:40;3.03;;;0.88;;
54247;SDS011;40161;39.768;2.722;2023-03-23T03:54:06;1.85;;;0.70;;
54247;SDS011;40161;39.768;2.722;2023-03-23T03:56:32;3.05;;;0.95;;
54247;SDS011;40161;39.768;2.722;2023-03-23T03:59:01;2.10;;;0.80;;
54247;SDS011;40161;39.768;2.722;2023-03-23T04:01:27;2.33;;;0.93;;
54247;SDS011;40161;39.768;2.722;2023-03-23T04:03:53;1.83;;;0.70;;
54247;SDS011;40161;39.768;2.722;2023-03-23T04:06:20;1.25;;;0.82;;
54247;SDS011;40161;39.768;2.722;2023-03-23T04:08:46;2.80;;;0.70;;
54247;SDS011;40161;39.768;2.722;2023-03-23T04:11:12;1.17;;;0.75;;
54247;SDS011;40161;39.768;2.722;2023-03-23T04:13:39;2.47;;;0.80;;
54247;SDS011;40161;39.768;2.722;2023-03-23T04:16:05;1.33;;;0.70;;
54247;SDS011;40161;39.768;2.722;2023-03-23T04:18:32;1.52;;;0.82;;
54247;SDS011;40161;39.768;2.722;2023-03-23T04:20:59;1.92;;;0.80;;
54247;SDS011;40161;39.768;2.722;2023-03-23T04:23:26;1.02;;;0.77;;
54247;SDS011;40161;39.768;2.722;2023-03-23T04:25:55;4.28;;;0.95;;
54247;SDS011;40161;39.768;2.722;2023-03-23T04:28:22;1.33;;;0.80;;
54247;SDS011;40161;39.768;2.722;2023-03-23T04:30:52;2.45;;;0.90;;
54247;SDS011;40161;39.768;2.722;2023-03-23T04:33:18;1.33;;;0.80;;
54247;SDS011;40161;39.768;2.722;2023-03-23T04:35:45;2.05;;;0.80;;
54247;SDS011;40161;39.768;2.722;2023-03-23T04:38:13;2.53;;;0.85;;
54247;SDS011;40161;39.768;2.722;2023-03-23T04:43:11;0.82;;;0.60;;
54247;SDS011;40161;39.768;2.722;2023-03-23T04:45:37;0.98;;;0.70;;
54247;SDS011;40161;39.768;2.722;2023-03-23T04:48:06;2.92;;;0.90;;
54247;SDS011;40161;39.768;2.722;2023-03-23T04:50:33;0.95;;;0.70;;
54247;SDS011;40161;39.768;2.722;2023-03-23T04:53:00;1.33;;;0.80;;
54247;SDS011;40161;39.768;2.722;2023-03-23T04:55:30;2.53;;;0.80;;
54247;SDS011;40161;39.768;2.722;2023-03-23T04:57:57;2.88;;;0.75;;
54247;SDS011;40161;39.768;2.722;2023-03-23T05:00:26;1.85;;;0.90;;
54247;SDS011;40161;39.768;2.722;2023-03-23T05:02:52;2.05;;;0.90;;
54247;SDS011;40161;39.768;2.722;2023-03-23T05:05:20;1.20;;;0.70;;
54247;SDS011;40161;39.768;2.722;2023-03-23T05:07:47;1.38;;;0.90;;
54247;SDS011;40161;39.768;2.722;2023-03-23T05:10:14;1.98;;;1.00;;
54247;SDS011;40161;39.768;2.722;2023-03-23T05:12:40;3.25;;;1.08;;
54247;SDS011;40161;39.768;2.722;2023-03-23T05:15:07;1.75;;;0.68;;
54247;SDS011;40161;39.768;2.722;2023-03-23T05:17:37;0.88;;;0.70;;
54247;SDS011;40161;39.768;2.722;2023-03-23T05:20:04;1.52;;;0.88;;
54247;SDS011;40161;39.768;2.722;2023-03-23T05:22:33;2.35;;;0.93;;
54247;SDS011;40161;39.768;2.722;2023-03-23T05:24:59;1.92;;;1.05;;
54247;SDS011;40161;39.768;2.722;2023-03-23T05:27:27;1.33;;;0.82;;
54247;SDS011;40161;39.768;2.722;2023-03-23T05:29:55;2.30;;;1.00;;
54247;SDS011;40161;39.768;2.722;2023-03-23T05:32:23;3.20;;;0.90;;
54247;SDS011;40161;39.768;2.722;2023-03-23T05:35:00;2.33;;;0.90;;
54247;SDS011;40161;39.768;2.722;2023-03-23T05:37:28;2.22;;;0.90;;
54247;SDS011;40161;39.768;2.722;2023-03-23T05:39:57;2.95;;;0.95;;
54247;SDS011;40161;39.768;2.722;2023-03-23T05:42:30;1.25;;;0.73;;
54247;SDS011;40161;39.768;2.722;2023-03-23T05:44:56;1.23;;;0.80;;
54247;SDS011;40161;39.768;2.722;2023-03-23T05:47:22;3.60;;;0.80;;
54247;SDS011;40161;39.768;2.722;2023-03-23T05:49:48;3.03;;;0.80;;
54247;SDS011;40161;39.768;2.722;2023-03-23T05:52:13;4.13;;;1.13;;
54247;SDS011;40161;39.768;2.722;2023-03-23T05:54:39;2.78;;;0.80;;
54247;SDS011;40161;39.768;2.722;2023-03-23T05:57:06;2.70;;;0.90;;
54247;SDS011;40161;39.768;2.722;2023-03-23T05:59:33;1.95;;;0.80;;
54247;SDS011;40161;39.768;2.722;2023-03-23T06:02:00;2.65;;;0.90;;
54247;SDS011;40161;39.768;2.722;2023-03-23T06:04:25;2.28;;;0.98;;
54247;SDS011;40161;39.768;2.722;2023-03-23T06:06:52;3.30;;;1.00;;
54247;SDS011;40161;39.768;2.722;2023-03-23T06:09:18;1.50;;;0.90;;
54247;SDS011;40161;39.768;2.722;2023-03-23T06:11:44;1.98;;;0.80;;
54247;SDS011;40161;39.768;2.722;2023-03-23T06:14:10;2.85;;;0.95;;
54247;SDS011;40161;39.768;2.722;2023-03-23T06:16:37;2.63;;;1.48;;
54247;SDS011;40161;39.768;2.722;2023-03-23T06:19:03;1.85;;;1.00;;
54247;SDS011;40161;39.768;2.722;2023-03-23T06:21:29;2.28;;;1.13;;
54247;SDS011;40161;39.768;2.722;2023-03-23T06:23:56;2.85;;;1.05;;
54247;SDS011;40161;39.768;2.722;2023-03-23T06:26:25;2.60;;;1.13;;
54247;SDS011;40161;39.768;2.722;2023-03-23T06:28:54;3.83;;;1.30;;
54247;SDS011;40161;39.768;2.722;2023-03-23T06:31:20;2.42;;;1.08;;
54247;SDS011;40161;39.768;2.722;2023-03-23T06:33:46;1.73;;;1.10;;
54247;SDS011;40161;39.768;2.722;2023-03-23T06:36:12;2.65;;;1.20;;
54247;SDS011;40161;39.768;2.722;2023-03-23T06:38:40;4.90;;;1.50;;
54247;SDS011;40161;39.768;2.722;2023-03-23T06:41:06;4.07;;;1.42;;
54247;SDS011;40161;39.768;2.722;2023-03-23T06:43:31;4.57;;;1.38;;
54247;SDS011;40161;39.768;2.722;2023-03-23T06:45:59;5.68;;;2.00;;
54247;SDS011;40161;39.768;2.722;2023-03-23T06:48:25;2.58;;;1.20;;
54247;SDS011;40161;39.768;2.722;2023-03-23T06:50:51;3.25;;;1.02;;
54247;SDS011;40161;39.768;2.722;2023-03-23T06:53:17;3.38;;;1.13;;
54247;SDS011;40161;39.768;2.722;2023-03-23T06:55:45;3.88;;;1.10;;
54247;SDS011;40161;39.768;2.722;2023-03-23T06:58:11;3.17;;;1.20;;
54247;SDS011;40161;39.768;2.722;2023-03-23T07:00:37;2.30;;;1.02;;
54247;SDS011;40161;39.768;2.722;2023-03-23T07:03:03;1.50;;;1.00;;
54247;SDS011;40161;39.768;2.722;2023-03-23T07:05:29;4.78;;;1.30;;
54247;SDS011;40161;39.768;2.722;2023-03-23T07:07:55;6.07;;;1.40;;
54247;SDS011;40161;39.768;2.722;2023-03-23T07:10:21;3.58;;;2.00;;
54247;SDS011;40161;39.768;2.722;2023-03-23T07:12:46;6.00;;;1.85;;
54247;SDS011;40161;39.768;2.722;2023-03-23T07:15:12;4.53;;;1.92;;
54247;SDS011;40161;39.768;2.722;2023-03-23T07:17:38;4.63;;;2.28;;
54247;SDS011;40161;39.768;2.722;2023-03-23T07:20:05;5.40;;;2.05;;
54247;SDS011;40161;39.768;2.722;2023-03-23T07:22:31;6.78;;;2.92;;
54247;SDS011;40161;39.768;2.722;2023-03-23T07:24:57;7.05;;;3.75;;
54247;SDS011;40161;39.768;2.722;2023-03-23T07:27:23;5.63;;;3.35;;
54247;SDS011;40161;39.768;2.722;2023-03-23T07:29:49;5.63;;;3.22;;
54247;SDS011;40161;39.768;2.722;2023-03-23T07:32:14;7.82;;;4.25;;
54247;SDS011;40161;39.768;2.722;2023-03-23T07:34:40;13.32;;;4.80;;
54247;SDS011;40161;39.768;2.722;2023-03-23T07:37:06;7.53;;;4.18;;
54247;SDS011;40161;39.768;2.722;2023-03-23T07:39:32;6.05;;;3.50;;
54247;SDS011;40161;39.768;2.722;2023-03-23T07:41:58;6.65;;;3.03;;
54247;SDS011;40161;39.768;2.722;2023-03-23T07:44:24;5.43;;;3.20;;
54247;SDS011;40161;39.768;2.722;2023-03-23T07:46:50;5.63;;;3.08;;
54247;SDS011;40161;39.768;2.722;2023-03-23T07:49:16;9.55;;;2.90;;
54247;SDS011;40161;39.768;2.722;2023-03-23T07:51:42;7.85;;;3.13;;
54247;SDS011;40161;39.768;2.722;2023-03-23T07:54:08;10.70;;;3.47;;
54247;SDS011;40161;39.768;2.722;2023-03-23T07:56:34;9.07;;;3.55;;
54247;SDS011;40161;39.768;2.722;2023-03-23T07:59:01;8.02;;;4.13;;
54247;SDS011;40161;39.768;2.722;2023-03-23T08:01:27;21.05;;;13.95;;
54247;SDS011;40161;39.768;2.722;2023-03-23T08:03:53;21.45;;;13.00;;
54247;SDS011;40161;39.768;2.722;2023-03-23T08:06:21;8.07;;;4.80;;
54247;SDS011;40161;39.768;2.722;2023-03-23T08:08:48;6.75;;;3.75;;
54247;SDS011;40161;39.768;2.722;2023-03-23T08:11:14;11.15;;;5.93;;
54247;SDS011;40161;39.768;2.722;2023-03-23T08:13:41;10.10;;;5.65;;
54247;SDS011;40161;39.768;2.722;2023-03-23T08:16:07;9.52;;;6.20;;
54247;SDS011;40161;39.768;2.722;2023-03-23T08:18:34;7.88;;;4.78;;
54247;SDS011;40161;39.768;2.722;2023-03-23T08:21:00;6.53;;;4.50;;
54247;SDS011;40161;39.768;2.722;2023-03-23T08:23:29;4.63;;;2.90;;
54247;SDS011;40161;39.768;2.722;2023-03-23T08:25:55;7.28;;;3.63;;
54247;SDS011;40161;39.768;2.722;2023-03-23T08:28:21;5.93;;;3.55;;
54247;SDS011;40161;39.768;2.722;2023-03-23T08:30:47;6.10;;;3.63;;
54247;SDS011;40161;39.768;2.722;2023-03-23T08:33:13;6.32;;;3.25;;
54247;SDS011;40161;39.768;2.722;2023-03-23T08:35:39;4.10;;;2.00;;
54247;SDS011;40161;39.768;2.722;2023-03-23T08:38:05;5.45;;;2.60;;
54247;SDS011;40161;39.768;2.722;2023-03-23T08:40:31;7.78;;;3.20;;
54247;SDS011;40161;39.768;2.722;2023-03-23T08:42:57;7.03;;;3.35;;
54247;SDS011;40161;39.768;2.722;2023-03-23T08:45:24;5.45;;;2.88;;
54247;SDS011;40161;39.768;2.722;2023-03-23T08:47:51;9.05;;;3.42;;
54247;SDS011;40161;39.768;2.722;2023-03-23T08:50:20;6.68;;;2.72;;
54247;SDS011;40161;39.768;2.722;2023-03-23T08:52:48;6.07;;;3.42;;
54247;SDS011;40161;39.768;2.722;2023-03-23T08:55:15;5.13;;;2.35;;
54247;SDS011;40161;39.768;2.722;2023-03-23T08:57:41;4.00;;;2.10;;
54247;SDS011;40161;39.768;2.722;2023-03-23T09:00:11;5.30;;;2.95;;
54247;SDS011;40161;39.768;2.722;2023-03-23T09:02:42;4.50;;;2.50;;
54247;SDS011;40161;39.768;2.722;2023-03-23T09:05:09;2.60;;;1.40;;
54247;SDS011;40161;39.768;2.722;2023-03-23T09:07:36;3.55;;;1.60;;
54247;SDS011;40161;39.768;2.722;2023-03-23T09:10:03;4.32;;;2.08;;
54247;SDS011;40161;39.768;2.722;2023-03-23T09:12:29;5.10;;;2.17;;
54247;SDS011;40161;39.768;2.722;2023-03-23T09:14:55;4.75;;;2.78;;
54247;SDS011;40161;39.768;2.722;2023-03-23T09:17:21;2.63;;;1.10;;
54247;SDS011;40161;39.768;2.722;2023-03-23T09:19:46;2.95;;;1.30;;
54247;SDS011;40161;39.768;2.722;2023-03-23T09:22:12;5.47;;;1.90;;
54247;SDS011;40161;39.768;2.722;2023-03-23T09:24:37;5.05;;;2.28;;
54247;SDS011;40161;39.768;2.722;2023-03-23T09:27:03;8.45;;;1.70;;
54247;SDS011;40161;39.768;2.722;2023-03-23T09:29:29;3.55;;;1.15;;
54247;SDS011;40161;39.768;2.722;2023-03-23T09:31:55;3.28;;;1.60;;
54247;SDS011;40161;39.768;2.722;2023-03-23T09:34:21;3.33;;;1.50;;
54247;SDS011;40161;39.768;2.722;2023-03-23T09:36:47;3.30;;;1.20;;
54247;SDS011;40161;39.768;2.722;2023-03-23T09:39:14;3.83;;;1.40;;
54247;SDS011;40161;39.768;2.722;2023-03-23T09:50:18;3.75;;;1.77;;
54247;SDS011;40161;39.768;2.722;2023-03-23T09:52:55;3.85;;;1.30;;
54247;SDS011;40161;39.768;2.722;2023-03-23T09:55:23;2.80;;;1.35;;
54247;SDS011;40161;39.768;2.722;2023-03-23T09:57:55;3.15;;;1.20;;
54247;SDS011;40161;39.768;2.722;2023-03-23T10:00:46;3.22;;;1.00;;
54247;SDS011;40161;39.768;2.722;2023-03-23T10:03:34;2.38;;;0.75;;
54247;SDS011;40161;39.768;2.722;2023-03-23T10:06:04;4.13;;;0.80;;
54247;SDS011;40161;39.768;2.722;2023-03-23T10:08:33;1.20;;;0.60;;
54247;SDS011;40161;39.768;2.722;2023-03-23T10:11:03;2.20;;;0.60;;
54247;SDS011;40161;39.768;2.722;2023-03-23T10:16:55;1.92;;;0.50;;
54247;SDS011;40161;39.768;2.722;2023-03-23T10:22:17;2.00;;;1.05;;
54247;SDS011;40161;39.768;2.722;2023-03-23T10:24:54;2.63;;;0.70;;
54247;SDS011;40161;39.768;2.722;2023-03-23T10:30:19;1.48;;;0.60;;
54247;SDS011;40161;39.768;2.722;2023-03-23T10:33:23;3.35;;;0.80;;
54247;SDS011;40161;39.768;2.722;2023-03-23T10:38:26;2.10;;;0.88;;
54247;SDS011;40161;39.768;2.722;2023-03-23T10:41:04;2.45;;;0.80;;
54247;SDS011;40161;39.768;2.722;2023-03-23T10:43:34;1.77;;;0.80;;
54247;SDS011;40161;39.768;2.722;2023-03-23T10:46:01;1.13;;;0.80;;
54247;SDS011;40161;39.768;2.722;2023-03-23T10:48:33;1.23;;;0.68;;
54247;SDS011;40161;39.768;2.722;2023-03-23T10:53:35;2.80;;;0.63;;
54247;SDS011;40161;39.768;2.722;2023-03-23T10:56:03;2.42;;;1.00;;
54247;SDS011;40161;39.768;2.722;2023-03-23T10:58:34;1.73;;;0.75;;
54247;SDS011;40161;39.768;2.722;2023-03-23T11:01:02;3.63;;;1.20;;
54247;SDS011;40161;39.768;2.722;2023-03-23T11:05:59;3.75;;;0.85;;
54247;SDS011;40161;39.768;2.722;2023-03-23T11:08:32;3.53;;;0.80;;
54247;SDS011;40161;39.768;2.722;2023-03-23T11:11:11;3.10;;;0.90;;
54247;SDS011;40161;39.768;2.722;2023-03-23T11:13:42;2.42;;;0.95;;
54247;SDS011;40161;39.768;2.722;2023-03-23T11:16:10;4.15;;;0.70;;
54247;SDS011;40161;39.768;2.722;2023-03-23T11:18:50;2.40;;;0.70;;
54247;SDS011;40161;39.768;2.722;2023-03-23T11:21:17;4.05;;;0.60;;
54247;SDS011;40161;39.768;2.722;2023-03-23T11:23:48;2.92;;;0.70;;
54247;SDS011;40161;39.768;2.722;2023-03-23T11:26:23;1.07;;;0.60;;
54247;SDS011;40161;39.768;2.722;2023-03-23T11:31:37;3.33;;;0.95;;
54247;SDS011;40161;39.768;2.722;2023-03-23T11:36:37;1.83;;;0.82;;
54247;SDS011;40161;39.768;2.722;2023-03-23T11:39:27;1.77;;;0.60;;
54247;SDS011;40161;39.768;2.722;2023-03-23T11:41:58;3.35;;;0.80;;
54247;SDS011;40161;39.768;2.722;2023-03-23T11:44:33;0.85;;;0.55;;
54247;SDS011;40161;39.768;2.722;2023-03-23T11:55:16;2.00;;;0.60;;
54247;SDS011;40161;39.768;2.722;2023-03-23T11:57:47;4.75;;;1.20;;
54247;SDS011;40161;39.768;2.722;2023-03-23T12:00:14;1.52;;;0.50;;
54247;SDS011;40161;39.768;2.722;2023-03-23T12:05:43;2.83;;;0.80;;
54247;SDS011;40161;39.768;2.722;2023-03-23T12:10:59;1.30;;;0.50;;
54247;SDS011;40161;39.768;2.722;2023-03-23T12:13:52;3.88;;;0.60;;
54247;SDS011;40161;39.768;2.722;2023-03-23T12:36:03;4.32;;;1.00;;
54247;SDS011;40161;39.768;2.722;2023-03-23T12:38:46;1.50;;;0.60;;
54247;SDS011;40161;39.768;2.722;2023-03-23T12:44:09;1.80;;;0.40;;
54247;SDS011;40161;39.768;2.722;2023-03-23T12:49:46;1.90;;;0.65;;
54247;SDS011;40161;39.768;2.722;2023-03-23T12:52:23;1.60;;;0.63;;
54247;SDS011;40161;39.768;2.722;2023-03-23T12:58:07;2.17;;;0.77;;
54247;SDS011;40161;39.768;2.722;2023-03-23T13:03:29;1.35;;;0.57;;
54247;SDS011;40161;39.768;2.722;2023-03-23T13:06:12;1.70;;;0.75;;
54247;SDS011;40161;39.768;2.722;2023-03-23T13:11:41;3.35;;;0.80;;
54247;SDS011;40161;39.768;2.722;2023-03-23T13:25:00;2.30;;;1.00;;
54247;SDS011;40161;39.768;2.722;2023-03-23T13:27:29;2.17;;;0.75;;
54247;SDS011;40161;39.768;2.722;2023-03-23T13:29:55;1.48;;;0.82;;
54247;SDS011;40161;39.768;2.722;2023-03-23T13:32:29;2.80;;;0.80;;
54247;SDS011;40161;39.768;2.722;2023-03-23T13:35:00;3.03;;;0.60;;
54247;SDS011;40161;39.768;2.722;2023-03-23T13:37:29;3.97;;;0.85;;
54247;SDS011;40161;39.768;2.722;2023-03-23T13:40:15;3.83;;;1.00;;
54247;SDS011;40161;39.768;2.722;2023-03-23T13:43:00;1.30;;;0.60;;
54247;SDS011;40161;39.768;2.722;2023-03-23T13:50:53;2.08;;;0.75;;
54247;SDS011;40161;39.768;2.722;2023-03-23T13:53:23;2.53;;;0.80;;
54247;SDS011;40161;39.768;2.722;2023-03-23T13:59:05;2.33;;;0.80;;
54247;SDS011;40161;39.768;2.722;2023-03-23T14:01:37;1.13;;;0.52;;
54247;SDS011;40161;39.768;2.722;2023-03-23T14:04:10;5.13;;;0.80;;
54247;SDS011;40161;39.768;2.722;2023-03-23T14:06:41;1.90;;;0.70;;
54247;SDS011;40161;39.768;2.722;2023-03-23T14:11:48;2.30;;;0.75;;
54247;SDS011;40161;39.768;2.722;2023-03-23T14:14:38;1.80;;;0.60;;
54247;SDS011;40161;39.768;2.722;2023-03-23T14:17:27;3.00;;;0.75;;
54247;SDS011;40161;39.768;2.722;2023-03-23T14:19:54;2.90;;;0.70;;
54247;SDS011;40161;39.768;2.722;2023-03-23T14:22:23;3.25;;;0.80;;
54247;SDS011;40161;39.768;2.722;2023-03-23T14:24:50;4.25;;;0.90;;
54247;SDS011;40161;39.768;2.722;2023-03-23T14:27:19;2.90;;;0.60;;
54247;SDS011;40161;39.768;2.722;2023-03-23T14:29:56;2.83;;;0.60;;
54247;SDS011;40161;39.768;2.722;2023-03-23T14:32:27;3.53;;;0.80;;
54247;SDS011;40161;39.768;2.722;2023-03-23T14:34:56;3.55;;;0.82;;
54247;SDS011;40161;39.768;2.722;2023-03-23T14:37:22;2.63;;;0.80;;
54247;SDS011;40161;39.768;2.722;2023-03-23T14:39:49;3.13;;;0.90;;
54247;SDS011;40161;39.768;2.722;2023-03-23T14:42:18;1.63;;;0.70;;
54247;SDS011;40161;39.768;2.722;2023-03-23T14:44:46;2.33;;;0.70;;
54247;SDS011;40161;39.768;2.722;2023-03-23T14:47:19;2.50;;;0.70;;
54247;SDS011;40161;39.768;2.722;2023-03-23T14:49:47;0.60;;;0.50;;
54247;SDS011;40161;39.768;2.722;2023-03-23T14:52:21;1.73;;;0.70;;
54247;SDS011;40161;39.768;2.722;2023-03-23T14:54:48;1.80;;;0.60;;
54247;SDS011;40161;39.768;2.722;2023-03-23T14:57:15;1.88;;;0.77;;
54247;SDS011;40161;39.768;2.722;2023-03-23T14:59:43;1.38;;;0.55;;
54247;SDS011;40161;39.768;2.722;2023-03-23T15:02:20;8.20;;;5.03;;
54247;SDS011;40161;39.768;2.722;2023-03-23T15:04:58;10.25;;;6.47;;
54247;SDS011;40161;39.768;2.722;2023-03-23T15:07:30;8.50;;;4.75;;
54247;SDS011;40161;39.768;2.722;2023-03-23T15:09:59;8.80;;;5.45;;
54247;SDS011;40161;39.768;2.722;2023-03-23T15:12:26;9.43;;;3.65;;
54247;SDS011;40161;39.768;2.722;2023-03-23T15:14:57;5.65;;;3.38;;
54247;SDS011;40161;39.768;2.722;2023-03-23T15:17:27;3.33;;;1.52;;
54247;SDS011;40161;39.768;2.722;2023-03-23T15:19:55;2.83;;;1.65;;
54247;SDS011;40161;39.768;2.722;2023-03-23T15:22:27;3.95;;;0.90;;
54247;SDS011;40161;39.768;2.722;2023-03-23T15:27:33;2.15;;;0.60;;
54247;SDS011;40161;39.768;2.722;2023-03-23T15:32:45;0.85;;;0.50;;
54247;SDS011;40161;39.768;2.722;2023-03-23T15:35:12;3.50;;;0.93;;
54247;SDS011;40161;39.768;2.722;2023-03-23T15:37:49;2.95;;;0.85;;
54247;SDS011;40161;39.768;2.722;2023-03-23T15:40:19;1.05;;;0.60;;
54247;SDS011;40161;39.768;2.722;2023-03-23T15:42:46;1.52;;;0.65;;
54247;SDS011;40161;39.768;2.722;2023-03-23T15:52:57;2.22;;;0.77;;
54247;SDS011;40161;39.768;2.722;2023-03-23T15:57:54;5.07;;;0.90;;
54247;SDS011;40161;39.768;2.722;2023-03-23T16:00:22;3.20;;;0.57;;
54247;SDS011;40161;39.768;2.722;2023-03-23T16:02:52;2.30;;;0.50;;
54247;SDS011;40161;39.768;2.722;2023-03-23T16:05:22;2.45;;;0.77;;
54247;SDS011;40161;39.768;2.722;2023-03-23T16:07:48;2.95;;;0.60;;
54247;SDS011;40161;39.768;2.722;2023-03-23T16:10:16;2.03;;;0.55;;
54247;SDS011;40161;39.768;2.722;2023-03-23T16:12:43;1.55;;;0.60;;
54247;SDS011;40161;39.768;2.722;2023-03-23T16:15:09;3.75;;;0.75;;
54247;SDS011;40161;39.768;2.722;2023-03-23T16:17:36;1.40;;;0.60;;
54247;SDS011;40161;39.768;2.722;2023-03-23T16:20:13;1.13;;;0.70;;
54247;SDS011;40161;39.768;2.722;2023-03-23T16:22:40;2.00;;;0.70;;
54247;SDS011;40161;39.768;2.722;2023-03-23T16:25:06;0.77;;;0.60;;
54247;SDS011;40161;39.768;2.722;2023-03-23T16:27:32;1.75;;;0.50;;
54247;SDS011;40161;39.768;2.722;2023-03-23T16:29:58;0.63;;;0.47;;
54247;SDS011;40161;39.768;2.722;2023-03-23T16:32:27;3.17;;;1.77;;
54247;SDS011;40161;39.768;2.722;2023-03-23T16:34:52;4.25;;;1.73;;
54247;SDS011;40161;39.768;2.722;2023-03-23T16:37:18;4.38;;;1.25;;
54247;SDS011;40161;39.768;2.722;2023-03-23T16:39:43;3.67;;;1.52;;
54247;SDS011;40161;39.768;2.722;2023-03-23T16:42:09;1.45;;;0.70;;
54247;SDS011;40161;39.768;2.722;2023-03-23T16:44:34;1.02;;;0.50;;
54247;SDS011;40161;39.768;2.722;2023-03-23T16:47:00;1.52;;;0.98;;
54247;SDS011;40161;39.768;2.722;2023-03-23T16:49:25;2.35;;;1.00;;
54247;SDS011;40161;39.768;2.722;2023-03-23T16:51:51;2.15;;;0.75;;
54247;SDS011;40161;39.768;2.722;2023-03-23T16:54:17;2.00;;;0.60;;
54247;SDS011;40161;39.768;2.722;2023-03-23T16:56:42;2.63;;;0.90;;
54247;SDS011;40161;39.768;2.722;2023-03-23T16:59:12;3.63;;;1.20;;
54247;SDS011;40161;39.768;2.722;2023-03-23T17:01:37;3.63;;;0.90;;
54247;SDS011;40161;39.768;2.722;2023-03-23T17:04:03;3.65;;;1.00;;
54247;SDS011;40161;39.768;2.722;2023-03-23T17:06:29;2.22;;;0.80;;
54247;SDS011;40161;39.768;2.722;2023-03-23T17:08:57;2.70;;;0.85;;
54247;SDS011;40161;39.768;2.722;2023-03-23T17:11:23;2.30;;;0.60;;
54247;SDS011;40161;39.768;2.722;2023-03-23T17:13:48;2.28;;;0.60;;
54247;SDS011;40161;39.768;2.722;2023-03-23T17:16:14;4.78;;;1.13;;
54247;SDS011;40161;39.768;2.722;2023-03-23T17:18:39;3.35;;;0.88;;
54247;SDS011;40161;39.768;2.722;2023-03-23T17:21:05;1.98;;;0.80;;